MET'MAP v2.0
soon released !

Expected late october,
this new version will be
more efficient, smarter,
and hosted on a brand new
server x3 powerfull...
...and still free !


Not compatible ?
Try the mobile version !

LOG IN : | Subscribe | Disclaimer | Who is Orbifly ? |
ICAO code :
Legend : VFR Marginal VFR IFR Intensive IFR Very Intensive IFR
Visi :
Ceiling :
>= 8 km
>= 3000ft
5 to 8 km
1000 to 3000 ft
1500m to 5 km
500 to 1000 ft
800 to 1500m
200 to 500 ft
< 800m
< 200 ft

METAR - LPOV Ovar Air Base - 02 Jun 2020 14:38 UTC
Data Sources :     NOAA   


- Airport Elevation : 56 ft
- No reported NOTAMs.


LPOV - Ovar Air Base

Latest METAR recorded : 2015/04/24 12:00 LPOV 241200Z 19008KT 3000 RA SCT016 BKN022 14/12 Q1015
TAF TAF LPOV
Valid from the 02 at 12:00 until the 03 at 12:00 UTC


021107Z 0212/0312 22005KT 9999 FEW030
BECMG 0214/0216 28008KT
BECMG 0218/0220 VRB02KT
PROB40 0302/0305 2000 BR BKN004
BECMG 0309/03011 28005KT

Source NOAA


MET'MAP, your aeronautical weather chart ! - Copyright ORBIFLY December 2007

Programming & Development : Alexandra Zaïnal
Co-Developer : Marc-Olivier Méhu
Technical & hardware support : Manuel Goepfert
Concept & Financing : Baudouin d'Aumeries